createdAt,value
2019-04-07T00:01:58.442Z,7.70
2019-04-07T00:04:28.131Z,7.70
2019-04-07T00:06:57.859Z,7.80
2019-04-07T00:09:27.629Z,7.80
2019-04-07T00:11:57.276Z,7.80
2019-04-07T00:14:27.257Z,7.80
2019-04-07T00:16:56.988Z,7.70
2019-04-07T00:19:27.160Z,7.70
2019-04-07T00:21:56.787Z,7.70
2019-04-07T00:24:26.240Z,7.70
2019-04-07T00:26:55.678Z,7.70
2019-04-07T00:29:25.181Z,7.70
2019-04-07T00:31:54.843Z,7.70
2019-04-07T00:34:24.790Z,7.80
2019-04-07T00:36:54.246Z,7.70
2019-04-07T00:39:23.778Z,7.80
2019-04-07T00:41:53.444Z,7.70
2019-04-07T00:44:23.542Z,7.80
2019-04-07T00:46:53.160Z,7.70
2019-04-07T00:49:22.660Z,7.70
2019-04-07T00:51:53.857Z,7.70
2019-04-07T00:54:23.853Z,7.70
2019-04-07T00:56:53.558Z,7.70
2019-04-07T00:59:23.272Z,7.70
2019-04-07T01:01:52.869Z,7.70
2019-04-07T01:04:22.350Z,7.80
2019-04-07T01:06:52.557Z,7.80
2019-04-07T01:09:22.373Z,7.80
2019-04-07T01:11:52.383Z,7.80
2019-04-07T01:14:22.467Z,7.80
2019-04-07T01:16:52.094Z,7.80
2019-04-07T01:19:22.670Z,7.80
2019-04-07T01:21:52.257Z,7.80
2019-04-07T01:24:21.998Z,7.80
2019-04-07T01:26:52.546Z,7.80
2019-04-07T01:29:22.203Z,7.70
2019-04-07T01:31:51.802Z,7.70
2019-04-07T01:34:21.370Z,7.60
2019-04-07T01:36:50.902Z,7.60
2019-04-07T01:39:20.636Z,7.50
2019-04-07T01:41:52.540Z,7.50
2019-04-07T01:44:23.839Z,7.50
2019-04-07T01:46:55.982Z,7.50
2019-04-07T01:49:27.304Z,7.60
2019-04-07T01:51:58.622Z,7.60
2019-04-07T01:54:29.857Z,7.60
2019-04-07T01:57:01.374Z,7.60
2019-04-07T01:59:32.650Z,7.70
2019-04-07T02:02:03.705Z,7.70
2019-04-07T02:04:34.860Z,7.70
2019-04-07T02:07:06.169Z,7.70
2019-04-07T02:09:37.824Z,7.70
2019-04-07T02:12:09.449Z,7.70
2019-04-07T02:14:41.036Z,7.70
2019-04-07T02:17:13.056Z,7.70
2019-04-07T02:19:44.894Z,7.70
2019-04-07T02:22:17.369Z,7.70
2019-04-07T02:24:48.862Z,7.70
2019-04-07T02:27:20.553Z,7.70
2019-04-07T02:29:52.154Z,7.70
2019-04-07T02:32:24.612Z,7.70
2019-04-07T02:34:55.916Z,7.80
2019-04-07T02:37:27.831Z,7.80
2019-04-07T02:39:57.139Z,7.80
2019-04-07T02:42:28.236Z,7.80
2019-04-07T02:44:59.480Z,7.70
2019-04-07T02:47:31.293Z,7.70
2019-04-07T02:50:03.380Z,7.70
2019-04-07T02:52:35.618Z,7.80
2019-04-07T02:55:09.860Z,7.80
2019-04-07T02:57:41.096Z,7.80
2019-04-07T03:00:12.583Z,7.80
2019-04-07T03:02:43.687Z,7.80
2019-04-07T03:05:15.709Z,7.80
2019-04-07T03:07:47.505Z,7.80
2019-04-07T03:10:19.139Z,7.70
2019-04-07T03:12:48.689Z,7.70
2019-04-07T03:15:19.784Z,7.60
2019-04-07T03:17:49.723Z,7.50
2019-04-07T03:20:23.117Z,7.30
2019-04-07T03:22:54.903Z,7.30
2019-04-07T03:25:26.211Z,7.30
2019-04-07T03:27:57.414Z,7.30
2019-04-07T03:30:42.272Z,7.20
2019-04-07T03:33:15.819Z,7.20
2019-04-07T03:35:50.233Z,7.20
2019-04-07T03:38:19.107Z,7.10
2019-04-07T03:40:51.614Z,7.30
2019-04-07T03:43:23.918Z,7.30
2019-04-07T03:45:55.094Z,7.30
2019-04-07T03:48:26.445Z,7.30
2019-04-07T03:50:56.848Z,7.30
2019-04-07T03:53:28.510Z,7.30
2019-04-07T03:55:59.898Z,7.30
2019-04-07T03:58:31.044Z,7.40
2019-04-07T04:01:05.250Z,7.50
2019-04-07T04:03:37.367Z,7.40
2019-04-07T04:06:09.170Z,7.50
2019-04-07T04:08:41.622Z,7.50
2019-04-07T04:11:14.146Z,7.50
2019-04-07T04:13:45.351Z,7.60
2019-04-07T04:16:14.946Z,7.60
2019-04-07T04:18:44.766Z,7.60
2019-04-07T04:21:14.282Z,7.60
2019-04-07T04:23:44.705Z,7.60
2019-04-07T04:26:15.173Z,7.60
2019-04-07T04:28:46.218Z,7.60
2019-04-07T04:31:16.196Z,7.60
2019-04-07T04:33:46.398Z,7.70
2019-04-07T04:36:16.083Z,7.70
2019-04-07T04:38:45.959Z,7.80
2019-04-07T04:41:15.552Z,7.70
2019-04-07T04:43:45.211Z,7.80
2019-04-07T04:46:15.103Z,7.80
2019-04-07T04:48:44.799Z,7.80
2019-04-07T04:51:14.221Z,7.70
2019-04-07T04:53:44.259Z,7.70
2019-04-07T04:56:14.619Z,7.70
2019-04-07T04:58:45.720Z,7.60
2019-04-07T05:01:19.082Z,7.70
2019-04-07T05:03:48.500Z,7.70
2019-04-07T05:06:20.061Z,7.70
2019-04-07T05:08:50.029Z,7.80
2019-04-07T05:11:19.758Z,7.80
2019-04-07T05:13:49.341Z,7.80
2019-04-07T05:16:19.727Z,7.80
2019-04-07T05:18:49.236Z,7.80
2019-04-07T05:21:18.838Z,7.90
2019-04-07T05:23:51.355Z,7.90
2019-04-07T05:26:21.334Z,7.90
2019-04-07T05:28:50.842Z,7.90
2019-04-07T05:31:21.067Z,7.90
2019-04-07T05:33:51.212Z,8.00
2019-04-07T05:36:21.439Z,8.00
2019-04-07T05:38:52.025Z,8.10
2019-04-07T05:41:21.877Z,8.10
2019-04-07T05:43:51.454Z,8.20
2019-04-07T05:46:20.844Z,8.20
2019-04-07T05:48:52.556Z,8.30
2019-04-07T05:51:22.086Z,8.30
2019-04-07T05:53:51.724Z,8.30
2019-04-07T05:56:21.413Z,8.30
2019-04-07T05:58:51.647Z,8.40
2019-04-07T06:01:23.403Z,8.40
2019-04-07T06:03:52.415Z,8.40
2019-04-07T06:06:22.600Z,8.40
2019-04-07T06:08:53.946Z,8.40
2019-04-07T06:11:23.527Z,8.50
2019-04-07T06:13:53.104Z,8.50
2019-04-07T06:16:22.623Z,8.50
2019-04-07T06:18:52.355Z,8.60
2019-04-07T06:21:23.414Z,8.60
2019-04-07T06:23:58.364Z,8.60
2019-04-07T06:26:24.153Z,8.70
2019-04-07T06:28:58.081Z,8.80
2019-04-07T06:31:26.309Z,8.90
2019-04-07T06:33:56.749Z,9.00
2019-04-07T06:36:26.843Z,9.00
2019-04-07T06:38:56.561Z,9.20
2019-04-07T06:41:29.511Z,9.20
2019-04-07T06:44:09.522Z,9.30
2019-04-07T06:46:30.541Z,9.40
2019-04-07T06:49:01.721Z,9.50
2019-04-07T06:51:33.473Z,9.60
2019-04-07T06:54:04.823Z,9.70
2019-04-07T06:56:36.023Z,9.80
2019-04-07T06:59:11.770Z,9.90
2019-04-07T07:01:39.918Z,10.00
2019-04-07T07:04:12.809Z,10.10
2019-04-07T07:06:46.105Z,10.10
2019-04-07T07:09:16.752Z,10.10
2019-04-07T07:11:48.525Z,10.20
2019-04-07T07:14:32.871Z,10.20
2019-04-07T07:16:52.562Z,10.30
2019-04-07T07:19:26.343Z,10.30
2019-04-07T07:21:56.813Z,10.30
2019-04-07T07:24:27.705Z,10.30
2019-04-07T07:26:58.191Z,10.40
2019-04-07T07:29:27.663Z,10.50
2019-04-07T07:32:01.929Z,10.60
2019-04-07T07:34:28.384Z,10.70
2019-04-07T07:36:58.916Z,10.80
2019-04-07T07:39:29.608Z,10.90
2019-04-07T07:41:59.389Z,11.00
2019-04-07T07:44:28.957Z,11.10
2019-04-07T07:46:58.418Z,11.10
2019-04-07T07:49:33.541Z,11.20
2019-04-07T07:52:00.329Z,11.30
2019-04-07T07:54:30.605Z,11.40
2019-04-07T07:57:00.330Z,11.60
2019-04-07T07:59:33.513Z,11.70
2019-04-07T08:02:01.334Z,11.80
2019-04-07T08:04:30.882Z,11.80
2019-04-07T08:07:02.615Z,11.90
2019-04-07T08:09:32.922Z,12.10
2019-04-07T08:12:03.591Z,12.00
2019-04-07T08:14:33.233Z,12.00
2019-04-07T08:17:03.714Z,12.00
2019-04-07T08:19:33.620Z,12.10
2019-04-07T08:22:03.141Z,12.20
2019-04-07T08:24:32.813Z,12.30
2019-04-07T08:27:04.035Z,12.20
2019-04-07T08:29:37.105Z,12.20
2019-04-07T08:32:05.438Z,12.30
2019-04-07T08:34:36.095Z,12.40
2019-04-07T08:37:05.974Z,12.40
2019-04-07T08:39:36.527Z,12.40
2019-04-07T08:42:10.696Z,12.40
2019-04-07T08:44:38.124Z,12.50
2019-04-07T08:47:11.434Z,12.50
2019-04-07T08:49:38.770Z,12.50
2019-04-07T08:52:10.987Z,12.40
2019-04-07T08:54:39.373Z,12.50
2019-04-07T08:57:09.611Z,12.60
2019-04-07T08:59:42.406Z,12.50
2019-04-07T09:02:10.337Z,12.40
2019-04-07T09:04:39.921Z,12.40
2019-04-07T09:07:10.263Z,12.40
2019-04-07T09:09:47.169Z,12.60
2019-04-07T09:12:12.172Z,12.70
2019-04-07T09:14:44.069Z,12.80
2019-04-07T09:17:15.291Z,13.00
2019-04-07T09:19:46.930Z,13.10
2019-04-07T09:22:22.139Z,13.30
2019-04-07T09:24:51.047Z,13.20
2019-04-07T09:27:23.457Z,13.30
2019-04-07T09:30:05.988Z,13.30
2019-04-07T09:32:36.415Z,13.10
2019-04-07T09:35:08.087Z,13.10
2019-04-07T09:37:39.831Z,12.90
2019-04-07T09:40:15.639Z,13.10
2019-04-07T09:42:44.775Z,13.30
2019-04-07T09:45:17.376Z,13.40
2019-04-07T09:47:49.618Z,13.50
2019-04-07T09:50:20.691Z,13.50
2019-04-07T09:55:35.609Z,13.50
2019-04-07T09:58:09.271Z,13.50
2019-04-07T10:00:39.892Z,13.40
2019-04-07T10:03:24.241Z,13.40
2019-04-07T10:05:55.367Z,13.30
2019-04-07T10:08:24.917Z,13.30
2019-04-07T10:10:54.833Z,13.30
2019-04-07T10:13:25.988Z,13.30
2019-04-07T10:15:57.419Z,13.10
2019-04-07T10:18:28.618Z,13.00
2019-04-07T10:21:00.984Z,12.90
2019-04-07T10:23:32.703Z,12.90
2019-04-07T10:26:04.124Z,13.00
2019-04-07T10:28:36.668Z,13.20
2019-04-07T10:31:08.002Z,13.30
2019-04-07T10:33:39.020Z,13.40
2019-04-07T10:36:11.285Z,13.40
2019-04-07T10:38:45.066Z,13.60
2019-04-07T10:41:17.167Z,13.80
2019-04-07T10:43:48.357Z,13.80
2019-04-07T10:46:20.337Z,13.90
2019-04-07T10:48:51.909Z,14.00
2019-04-07T10:51:23.088Z,14.20
2019-04-07T10:53:54.246Z,14.30
2019-04-07T10:56:25.523Z,14.60
2019-04-07T10:58:58.187Z,14.60
2019-04-07T11:01:30.027Z,14.60
2019-04-07T11:04:01.120Z,14.60
2019-04-07T11:06:33.881Z,14.80
2019-04-07T11:09:06.582Z,15.00
2019-04-07T11:11:37.874Z,15.00
2019-04-07T11:14:09.740Z,15.20
2019-04-07T11:16:40.888Z,15.30
2019-04-07T11:19:12.864Z,15.40
2019-04-07T11:21:44.133Z,15.30
2019-04-07T11:24:17.566Z,15.40
2019-04-07T11:26:48.910Z,15.40
2019-04-07T11:29:20.402Z,15.40
2019-04-07T11:31:51.670Z,15.30
2019-04-07T11:34:22.794Z,15.20
2019-04-07T11:36:54.484Z,15.30
2019-04-07T11:39:26.358Z,15.20
2019-04-07T11:41:57.547Z,15.30
2019-04-07T11:44:29.300Z,15.40
2019-04-07T11:47:00.584Z,15.30
2019-04-07T11:49:31.863Z,15.30
2019-04-07T11:52:03.667Z,15.20
2019-04-07T11:54:35.601Z,15.30
2019-04-07T11:57:06.999Z,15.50
2019-04-07T11:59:39.390Z,15.30
2019-04-07T12:02:09.025Z,15.10
2019-04-07T12:04:40.421Z,15.20
2019-04-07T12:07:10.028Z,15.40
2019-04-07T12:09:41.282Z,15.40
2019-04-07T12:12:12.640Z,15.20
2019-04-07T12:14:47.170Z,15.20
2019-04-07T12:17:15.109Z,14.70
2019-04-07T12:19:46.325Z,14.80
2019-04-07T12:22:18.298Z,14.90
2019-04-07T12:24:50.187Z,15.10
2019-04-07T12:27:22.398Z,15.30
2019-04-07T12:29:53.682Z,15.40
2019-04-07T12:32:24.978Z,15.60
2019-04-07T12:34:56.648Z,15.60
2019-04-07T12:37:28.420Z,15.50
2019-04-07T12:39:59.915Z,15.70
2019-04-07T12:42:29.917Z,15.80
2019-04-07T12:45:01.793Z,15.90
2019-04-07T12:47:34.375Z,16.00
2019-04-07T12:50:08.249Z,16.00
2019-04-07T12:52:39.317Z,16.10
2019-04-07T12:55:11.946Z,16.20
2019-04-07T12:57:43.541Z,16.20
2019-04-07T13:00:15.684Z,16.20
2019-04-07T13:02:47.590Z,16.20
2019-04-07T13:05:19.657Z,16.10
2019-04-07T13:07:52.348Z,15.90
2019-04-07T13:10:23.701Z,15.90
2019-04-07T13:12:57.171Z,15.90
2019-04-07T13:15:29.929Z,15.90
2019-04-07T13:18:03.648Z,15.80
2019-04-07T13:20:33.327Z,15.80
2019-04-07T13:23:04.888Z,15.80
2019-04-07T13:25:36.420Z,15.80
2019-04-07T13:28:08.257Z,15.70
2019-04-07T13:30:39.593Z,15.80
2019-04-07T13:33:11.381Z,15.80
2019-04-07T13:35:42.480Z,15.70
2019-04-07T13:38:13.673Z,15.70
2019-04-07T13:40:46.976Z,15.70
2019-04-07T13:43:17.653Z,15.40
2019-04-07T13:45:49.442Z,15.20
2019-04-07T13:48:20.914Z,15.30
2019-04-07T13:50:52.526Z,15.30
2019-04-07T13:53:26.978Z,15.40
2019-04-07T13:55:57.245Z,15.50
2019-04-07T13:58:31.017Z,15.60
2019-04-07T14:01:21.322Z,15.70
2019-04-07T14:03:52.196Z,15.80
2019-04-07T14:06:23.725Z,15.90
2019-04-07T14:08:57.236Z,15.90
2019-04-07T14:11:28.442Z,16.00
2019-04-07T14:14:00.192Z,16.10
2019-04-07T14:16:31.314Z,16.20
2019-04-07T14:19:03.641Z,16.30
2019-04-07T14:21:34.945Z,16.20
2019-04-07T14:24:08.104Z,16.20
2019-04-07T14:26:41.255Z,15.90
2019-04-07T14:29:14.098Z,15.80
2019-04-07T14:31:45.512Z,15.80
2019-04-07T14:34:17.123Z,15.90
2019-04-07T14:36:48.163Z,16.00
2019-04-07T14:39:20.583Z,15.80
2019-04-07T14:42:00.973Z,15.70
2019-04-07T14:44:24.735Z,15.70
2019-04-07T14:46:55.882Z,15.60
2019-04-07T14:49:28.652Z,15.60
2019-04-07T14:52:02.532Z,15.50
2019-04-07T14:54:34.586Z,15.40
2019-04-07T14:57:08.150Z,15.40
2019-04-07T14:59:39.469Z,15.40
2019-04-07T15:02:11.594Z,15.30
2019-04-07T15:04:43.093Z,15.30
2019-04-07T15:07:14.369Z,15.20
2019-04-07T15:09:45.880Z,15.30
2019-04-07T15:12:22.770Z,15.20
2019-04-07T15:14:49.102Z,15.10
2019-04-07T15:17:18.799Z,15.10
2019-04-07T15:19:48.524Z,15.10
2019-04-07T15:22:18.496Z,15.10
2019-04-07T15:24:49.562Z,15.10
2019-04-07T15:27:24.269Z,15.00
2019-04-07T15:29:51.632Z,14.90
2019-04-07T15:32:26.770Z,14.90
2019-04-07T15:34:54.648Z,14.90
2019-04-07T15:37:25.104Z,14.80
2019-04-07T15:39:54.620Z,14.80
2019-04-07T15:42:35.225Z,14.70
2019-04-07T15:44:55.345Z,14.70
2019-04-07T15:47:25.454Z,14.70
2019-04-07T15:49:57.772Z,14.70
2019-04-07T15:52:26.356Z,14.70
2019-04-07T15:54:56.298Z,14.60
2019-04-07T15:57:25.888Z,14.70
2019-04-07T15:59:56.139Z,14.70
2019-04-07T16:02:25.831Z,14.60
2019-04-07T16:04:59.952Z,14.60
2019-04-07T16:07:28.380Z,14.60
2019-04-07T16:09:58.267Z,14.60
2019-04-07T16:12:28.688Z,14.70
2019-04-07T16:14:58.198Z,14.70
2019-04-07T16:17:27.709Z,14.60
2019-04-07T16:19:57.329Z,14.60
2019-04-07T16:22:27.729Z,14.60
2019-04-07T16:24:58.410Z,14.60
2019-04-07T16:27:29.333Z,14.60
2019-04-07T16:29:58.906Z,14.60
2019-04-07T16:32:30.897Z,14.50
2019-04-07T16:35:00.638Z,14.50
2019-04-07T16:37:32.019Z,14.40
2019-04-07T16:40:06.790Z,14.40
2019-04-07T16:42:33.123Z,14.30
2019-04-07T16:45:02.706Z,14.20
2019-04-07T16:47:34.707Z,14.00
2019-04-07T16:50:03.784Z,13.70
2019-04-07T16:52:34.118Z,13.50
2019-04-07T16:55:07.962Z,13.50
2019-04-07T16:57:37.626Z,13.40
2019-04-07T17:00:12.685Z,13.20
2019-04-07T17:02:41.530Z,12.90
2019-04-07T17:05:12.047Z,12.90
2019-04-07T17:07:44.399Z,12.80
2019-04-07T17:10:13.327Z,12.70
2019-04-07T17:12:43.908Z,12.70
2019-04-07T17:15:13.665Z,12.40
2019-04-07T17:17:43.467Z,12.40
2019-04-07T17:20:14.673Z,12.30
2019-04-07T17:22:47.639Z,12.30
2019-04-07T17:25:15.800Z,12.20
2019-04-07T17:27:45.390Z,12.10
2019-04-07T17:30:18.264Z,12.00
2019-04-07T17:32:50.052Z,11.90
2019-04-07T17:35:21.249Z,11.90
2019-04-07T17:37:51.385Z,11.80
2019-04-07T17:40:22.703Z,11.50
2019-04-07T17:42:53.983Z,11.40
2019-04-07T17:45:25.186Z,11.30
2019-04-07T17:47:55.011Z,11.10
2019-04-07T17:50:30.399Z,11.00
2019-04-07T17:52:59.326Z,10.90
2019-04-07T17:55:30.504Z,10.70
2019-04-07T17:58:01.701Z,10.70
2019-04-07T18:00:34.221Z,10.60
2019-04-07T18:03:08.891Z,10.50
2019-04-07T18:05:38.734Z,10.50
2019-04-07T18:08:13.049Z,10.40
2019-04-07T18:10:43.299Z,10.40
2019-04-07T18:13:16.617Z,10.20
2019-04-07T18:15:45.623Z,10.20
2019-04-07T18:18:23.271Z,10.10
2019-04-07T18:20:48.437Z,10.00
2019-04-07T18:23:21.372Z,9.90
2019-04-07T18:25:53.208Z,9.80
2019-04-07T18:28:26.031Z,9.80
2019-04-07T18:30:57.412Z,9.80
2019-04-07T18:33:29.613Z,9.80
2019-04-07T18:36:03.284Z,9.70
2019-04-07T18:38:34.267Z,9.70
2019-04-07T18:41:10.090Z,9.70
2019-04-07T18:43:49.163Z,9.60
2019-04-07T18:46:11.873Z,9.70
2019-04-07T18:48:42.960Z,9.60
2019-04-07T18:51:14.804Z,9.50
2019-04-07T18:53:46.378Z,9.20
2019-04-07T18:56:19.996Z,9.10
2019-04-07T18:58:52.506Z,9.10
2019-04-07T19:01:23.034Z,9.00
2019-04-07T19:03:54.894Z,8.90
2019-04-07T19:06:26.244Z,8.80
2019-04-07T19:09:00.043Z,8.80
2019-04-07T19:11:30.847Z,8.70
2019-04-07T19:14:24.620Z,8.50
2019-04-07T19:16:34.754Z,8.40
2019-04-07T19:19:05.920Z,8.30
2019-04-07T19:21:38.789Z,8.20
2019-04-07T19:24:10.726Z,8.00
2019-04-07T19:26:42.710Z,8.20
2019-04-07T19:29:14.146Z,8.30
2019-04-07T19:31:48.109Z,8.30
2019-04-07T19:34:18.461Z,8.40
2019-04-07T19:36:49.931Z,8.50
2019-04-07T19:39:23.514Z,8.40
2019-04-07T19:41:53.977Z,8.40
2019-04-07T19:44:34.845Z,8.50
2019-04-07T19:46:58.681Z,8.40
2019-04-07T19:49:28.686Z,8.30
2019-04-07T19:52:03.281Z,8.10
2019-04-07T19:54:32.605Z,8.20
2019-04-07T19:57:04.685Z,8.20
2019-04-07T19:59:39.248Z,8.10
2019-04-07T20:02:07.529Z,8.10
2019-04-07T20:04:40.170Z,8.10
2019-04-07T20:07:11.598Z,8.10
2019-04-07T20:09:45.745Z,8.10
2019-04-07T20:12:13.650Z,8.00
2019-04-07T20:14:51.502Z,8.00
2019-04-07T20:17:22.454Z,8.00
2019-04-07T20:19:51.391Z,8.00
2019-04-07T20:22:24.695Z,8.00
2019-04-07T20:24:55.448Z,7.80
2019-04-07T20:27:28.540Z,7.70
2019-04-07T20:30:00.424Z,7.60
2019-04-07T20:32:33.791Z,7.50
2019-04-07T20:35:05.968Z,7.40
2019-04-07T20:37:37.978Z,7.30
2019-04-07T20:40:09.817Z,7.50
2019-04-07T20:42:46.362Z,7.50
2019-04-07T20:45:19.230Z,7.50
2019-04-07T20:47:47.765Z,7.50
2019-04-07T20:50:17.083Z,7.30
2019-04-07T20:52:48.229Z,7.30
2019-04-07T20:55:21.178Z,7.40
2019-04-07T20:57:56.459Z,7.40
2019-04-07T21:00:23.398Z,7.30
2019-04-07T21:03:09.114Z,7.30
2019-04-07T21:05:29.206Z,7.20
2019-04-07T21:08:01.051Z,7.20
2019-04-07T21:10:43.495Z,7.20
2019-04-07T21:13:16.730Z,7.20
2019-04-07T21:15:47.774Z,7.20
2019-04-07T21:18:18.943Z,7.20
2019-04-07T21:20:51.033Z,7.20
2019-04-07T21:23:22.142Z,7.10
2019-04-07T21:25:55.846Z,7.10
2019-04-07T21:28:26.802Z,6.90
2019-04-07T21:30:58.091Z,6.80
2019-04-07T21:33:29.460Z,6.60
2019-04-07T21:36:01.135Z,6.60
2019-04-07T21:38:32.739Z,6.50
2019-04-07T21:41:04.601Z,6.50
2019-04-07T21:43:36.113Z,6.50
2019-04-07T21:46:07.952Z,6.50
2019-04-07T21:48:39.237Z,6.50
2019-04-07T21:51:13.464Z,6.40
2019-04-07T21:53:43.198Z,6.50
2019-04-07T21:56:15.410Z,6.30
2019-04-07T21:58:47.507Z,6.10
2019-04-07T22:01:18.834Z,6.00
2019-04-07T22:03:50.005Z,6.00
2019-04-07T22:06:21.906Z,5.90
2019-04-07T22:08:53.955Z,6.00
2019-04-07T22:11:26.725Z,6.00
2019-04-07T22:13:55.374Z,6.00
2019-04-07T22:16:25.585Z,6.00
2019-04-07T22:18:56.912Z,6.10
2019-04-07T22:21:26.571Z,6.20
2019-04-07T22:23:56.240Z,6.20
2019-04-07T22:26:26.381Z,6.20
2019-04-07T22:28:56.948Z,6.20
2019-04-07T22:31:29.024Z,5.90
2019-04-07T22:34:01.013Z,5.80
2019-04-07T22:36:29.997Z,5.90
2019-04-07T22:39:02.014Z,5.70
2019-04-07T22:41:32.184Z,5.80
2019-04-07T22:44:01.651Z,5.90
2019-04-07T22:46:31.143Z,5.50
2019-04-07T22:49:00.938Z,5.50
2019-04-07T22:51:30.713Z,5.50
2019-04-07T22:54:00.387Z,5.40
2019-04-07T22:56:29.910Z,5.40
2019-04-07T22:59:00.279Z,5.40
2019-04-07T23:01:29.948Z,5.30
2019-04-07T23:04:12.389Z,5.20
2019-04-07T23:06:42.534Z,5.10
2019-04-07T23:09:13.358Z,5.20
2019-04-07T23:11:44.013Z,5.10
2019-04-07T23:14:13.732Z,5.20
2019-04-07T23:16:43.290Z,5.00
2019-04-07T23:19:12.807Z,5.00
2019-04-07T23:21:42.275Z,5.10
2019-04-07T23:24:12.855Z,5.20
2019-04-07T23:26:42.620Z,5.20
2019-04-07T23:29:12.188Z,5.20
2019-04-07T23:31:41.714Z,5.20
2019-04-07T23:34:11.247Z,5.20
2019-04-07T23:36:40.769Z,5.20
2019-04-07T23:39:11.119Z,5.20
2019-04-07T23:41:41.407Z,5.00
2019-04-07T23:44:12.884Z,5.00
2019-04-07T23:46:43.474Z,5.00
2019-04-07T23:49:13.197Z,4.90
2019-04-07T23:51:43.418Z,4.90
2019-04-07T23:54:14.497Z,5.00
2019-04-07T23:56:44.663Z,5.10
2019-04-07T23:59:15.059Z,4.80
